Ajax — WDC2573 — position and weather

sailwx.info

Track history (hours):
 
Tides and Currents Weather Stations Pressure Air Temp Water Temp Dewpoint Dewpoint Depression Visibility Wind Speed Wind Dir Waves Ship Positions

Ajax

Owner: Kirby Inland Marine LP, Houston, TX. More information available from US FCC via Universal Licensing System and Coast Guard Vessel Documentation Center.

Last reported at 2017-Dec-25 05:36 UTC. Time now 2018-Jan-19 15:26 UTC.
Position N 29°33' W 090°28'.
Warning: this ship's position is 25 days out of date.

Length 206 m; draft 3 m.

Type: . MMSI: 366995150.

Date/timePositionNaut miles runAvg speedWind from/ knotsBaromVisibWave heightAir tempDewpointWater temp
2017-Dec-25 05:36N 29°33' W 090°28'1 6.1
2017-Dec-25 05:28N 29°34' W 090°29'3 6.1
2017-Dec-25 05:00N 29°34' W 090°32'3 5.7
2017-Dec-25 04:31N 29°35' W 090°35'3 5.4
2017-Dec-25 04:00N 29°35' W 090°38'3 5.4
2017-Dec-25 03:30N 29°36' W 090°41'2 3.9
2017-Dec-25 03:01N 29°35' W 090°43'2 4.3
2017-Dec-25 02:30N 29°34' W 090°45'3 5.4
2017-Dec-25 02:00N 29°32' W 090°47'4 6.4
2017-Dec-25 01:25N 29°32' W 090°52'61 4.2
2017-Dec-24 10:59N 29°50' W 091°58'3 6.2
2017-Dec-24 10:30N 29°49' W 092°01'3 6.2
2017-Dec-24 10:01N 29°48' W 092°05'2 3.5
2017-Dec-24 09:30N 29°48' W 092°07'3 6.1
2017-Dec-24 09:00N 29°47' W 092°10'3 5.7
2017-Dec-24 08:31N 29°47' W 092°13'2 4.6
2017-Dec-24 08:00N 29°48' W 092°16'3 6.0
2017-Dec-24 07:30N 29°50' W 092°18'3 6.0
2017-Dec-24 07:00N 29°51' W 092°22'33 4.7
2017-Dec-23 23:57N 29°56' W 092°60'2 5.1
2017-Dec-23 23:30N 29°56' W 093°02'3 5.5
2017-Dec-23 23:00N 29°56' W 093°05'2 4.2
2017-Dec-23 22:30N 29°56' W 093°08'2 4.8
2017-Dec-23 22:00N 29°57' W 093°10'3 5.3
2017-Dec-23 21:30N 29°59' W 093°12'2 4.8
2017-Dec-23 21:01N 30°01' W 093°14'2 4.7
2017-Dec-23 20:31N 30°03' W 093°16'2 3.8
2017-Dec-23 20:00N 30°04' W 093°16'2 3.5
2017-Dec-23 19:31N 30°06' W 093°18'2 3.6
2017-Dec-23 19:00N 30°05' W 093°20'2 5.0
2017-Dec-23 18:30N 30°04' W 093°22'0 0.1
2017-Dec-23 18:01N 30°04' W 093°22'0 0.1
2017-Dec-23 17:30N 30°04' W 093°22'0 0.0
2017-Dec-23 17:00N 30°04' W 093°22'1 1.7
2017-Dec-23 16:31N 30°04' W 093°21'0 0.0
2017-Dec-23 16:00N 30°04' W 093°21'0 0.0
2017-Dec-23 15:30N 30°04' W 093°21'0 0.0
2017-Dec-23 15:01N 30°04' W 093°21'0 0.9
2017-Dec-23 14:30N 30°04' W 093°22'0 0.4
2017-Dec-23 14:00N 30°04' W 093°22'0 0.2
2017-Dec-23 13:31N 30°04' W 093°22'0 0.2
2017-Dec-23 13:00N 30°04' W 093°22'1 1.2
2017-Dec-23 12:30N 30°04' W 093°21'0 0.1
2017-Dec-23 11:59N 30°04' W 093°21'0 0.0
2017-Dec-23 11:29N 30°04' W 093°21'0 0.0
2017-Dec-23 10:59N 30°04' W 093°21'0 0.0
2017-Dec-23 10:29N 30°04' W 093°21'0 0.0
2017-Dec-23 09:59N 30°04' W 093°21'0 0.0
2017-Dec-23 09:29N 30°04' W 093°21'0 0.0
2017-Dec-23 08:59N 30°04' W 093°21'0 0.0
2017-Dec-23 08:29N 30°04' W 093°21'0 0.0
2017-Dec-23 07:59N 30°04' W 093°21'0 0.0
2017-Dec-23 07:29N 30°04' W 093°21'0 0.0
2017-Dec-23 06:59N 30°04' W 093°21'0 0.0
2017-Dec-23 06:29N 30°04' W 093°21'0 0.0
2017-Dec-23 05:59N 30°04' W 093°21'0 0.0
2017-Dec-23 05:29N 30°04' W 093°21'0 0.0
2017-Dec-23 04:59N 30°04' W 093°21'0 0.0
2017-Dec-23 04:29N 30°04' W 093°21'0 0.0
2017-Dec-23 03:59N 30°04' W 093°21'0 0.0
2017-Dec-23 03:29N 30°04' W 093°21'0 0.0
2017-Dec-23 02:59N 30°04' W 093°21'0 0.0
2017-Dec-23 02:29N 30°04' W 093°21'0 0.0
2017-Dec-23 01:59N 30°04' W 093°21'0 0.0
2017-Dec-23 01:29N 30°04' W 093°21'0 0.0
2017-Dec-23 00:59N 30°04' W 093°21'0 0.0
2017-Dec-23 00:29N 30°04' W 093°21'0 0.0
2017-Dec-22 23:56N 30°04' W 093°21'0 0.0
2017-Dec-22 23:29N 30°04' W 093°21'0 0.0
2017-Dec-22 22:59N 30°04' W 093°21'0 0.0
2017-Dec-22 22:29N 30°04' W 093°21'1 2.2
2017-Dec-22 22:01N 30°04' W 093°20'3 5.3
2017-Dec-22 21:30N 30°06' W 093°18'0 0.0
2017-Dec-22 21:00N 30°06' W 093°18'0 0.0
2017-Dec-22 20:30N 30°06' W 093°18'0 0.0
2017-Dec-22 20:01N 30°06' W 093°18'4 7.4
2017-Dec-22 19:30N 30°04' W 093°21'0 0.0
2017-Dec-22 18:58N 30°04' W 093°21'0 0.0
2017-Dec-22 18:31N 30°04' W 093°21'0 0.0
2017-Dec-22 18:00N 30°04' W 093°21'0 0.0
2017-Dec-22 17:31N 30°04' W 093°21'0 0.0
2017-Dec-22 17:01N 30°04' W 093°21'0 0.0
2017-Dec-22 16:30N 30°04' W 093°21'0 0.7
2017-Dec-22 16:01N 30°04' W 093°22'0 0.7
2017-Dec-22 15:31N 30°04' W 093°22'0 0.0
2017-Dec-22 15:01N 30°04' W 093°22'0 0.0
2017-Dec-22 14:28N 30°04' W 093°22'0 0.0
2017-Dec-22 13:58N 30°04' W 093°22'0 0.0
2017-Dec-22 13:28N 30°04' W 093°22'0 0.0
2017-Dec-22 12:58N 30°04' W 093°22'0 0.0
2017-Dec-22 12:28N 30°04' W 093°22'0 0.0
2017-Dec-22 11:58N 30°04' W 093°22'0 0.0
2017-Dec-22 11:28N 30°04' W 093°22'0 0.0
2017-Dec-22 10:58N 30°04' W 093°22'0 0.0
2017-Dec-22 10:28N 30°04' W 093°22'0 0.0
2017-Dec-22 09:58N 30°04' W 093°22'0 0.0
2017-Dec-22 09:28N 30°04' W 093°22'0 0.0
2017-Dec-22 09:00N 30°04' W 093°22'2 4.0
2017-Dec-22 08:30N 30°05' W 093°20'2 3.6
2017-Dec-22 08:00N 30°07' W 093°20'2 3.1
2017-Dec-22 07:30N 30°08' W 093°20'0 0.0
2017-Dec-22 07:00N 30°08' W 093°20'0 0.0
2017-Dec-22 06:30N 30°08' W 093°20'0 0.0
2017-Dec-22 06:00N 30°08' W 093°20'0 0.8
2017-Dec-22 05:28N 30°08' W 093°19'0 0.0
2017-Dec-22 04:58N 30°08' W 093°19'0 0.0
2017-Dec-22 04:30N 30°08' W 093°19'0 0.0
2017-Dec-22 04:00N 30°08' W 093°19'0 0.0
2017-Dec-22 03:31N 30°08' W 093°19'0 0.0
2017-Dec-22 03:01N 30°08' W 093°19'0 0.0
2017-Dec-22 02:30N 30°08' W 093°19'0 0.0
2017-Dec-22 02:00N 30°08' W 093°19'0 0.0
2017-Dec-22 01:31N 30°08' W 093°19'0 0.0
2017-Dec-22 01:00N 30°08' W 093°19'0 0.0
2017-Dec-22 00:31N 30°08' W 093°19'0 0.0
2017-Dec-22 00:00N 30°08' W 093°19'0 0.0
2017-Dec-21 23:30N 30°08' W 093°19'0 0.0
2017-Dec-21 23:01N 30°08' W 093°19'0 0.0
2017-Dec-21 22:30N 30°08' W 093°19'0 0.0
2017-Dec-21 22:00N 30°08' W 093°19'0 0.0
2017-Dec-21 21:30N 30°08' W 093°19'0 0.0
2017-Dec-21 21:01N 30°08' W 093°19'0 0.0
2017-Dec-21 20:30N 30°08' W 093°19'0 0.0
2017-Dec-21 20:00N 30°08' W 093°19'0 0.0
2017-Dec-21 19:30N 30°08' W 093°19'0 0.0
2017-Dec-21 19:01N 30°08' W 093°19'0 0.0
2017-Dec-21 18:30N 30°08' W 093°19'0 0.0
2017-Dec-21 18:00N 30°08' W 093°19'0 0.0
2017-Dec-21 17:30N 30°08' W 093°19'0 0.0
2017-Dec-21 17:00N 30°08' W 093°19'0 0.0
2017-Dec-21 16:30N 30°08' W 093°19'0 0.1
2017-Dec-21 16:00N 30°08' W 093°19'0 0.0
2017-Dec-21 15:30N 30°08' W 093°19'1 1.5
2017-Dec-21 15:01N 30°08' W 093°20'2 3.9
2017-Dec-21 14:30N 30°06' W 093°20'3 4.7
2017-Dec-21 13:57N 30°04' W 093°21'1 1.3
2017-Dec-21 13:29N 30°04' W 093°22'0 0.1
2017-Dec-21 12:56N 30°04' W 093°22'0 0.0
2017-Dec-21 12:29N 30°04' W 093°22'0 0.2
2017-Dec-21 11:58N 30°04' W 093°22'1 1.2
2017-Dec-21 11:30N 30°04' W 093°22'2 3.8
2017-Dec-21 10:59N 30°05' W 093°20'3 4.8
2017-Dec-21 10:25N 30°08' W 093°20'3 1.8
2017-Dec-21 08:27N 30°11' W 093°19'0 0.0
2017-Dec-21 08:00N 30°11' W 093°19'0 0.0
2017-Dec-21 07:30N 30°11' W 093°19'0 0.0
2017-Dec-21 07:00N 30°11' W 093°19'0 0.0
2017-Dec-21 06:03N 30°11' W 093°19'0 0.0
2017-Dec-21 05:57N 30°11' W 093°19'0 0.0
2017-Dec-21 05:30N 30°11' W 093°19'0 0.0
2017-Dec-21 05:00N 30°11' W 093°19'0 0.0
2017-Dec-21 04:30N 30°11' W 093°19'0 0.0
2017-Dec-21 04:00N 30°11' W 093°19'0 0.0
2017-Dec-21 03:30N 30°11' W 093°19'0 0.0
2017-Dec-21 03:00N 30°11' W 093°19'0 0.0
2017-Dec-21 02:30N 30°11' W 093°19'0 0.0
2017-Dec-21 02:00N 30°11' W 093°19'0 0.0
2017-Dec-21 01:30N 30°11' W 093°19'0 0.0
2017-Dec-21 01:00N 30°11' W 093°19'0 0.0
2017-Dec-21 00:30N 30°11' W 093°19'0 0.0
2017-Dec-21 00:00N 30°11' W 093°19'0 0.0
2017-Dec-20 23:30N 30°11' W 093°19'0 0.0
2017-Dec-20 23:00N 30°11' W 093°19'0 0.0
2017-Dec-20 22:30N 30°11' W 093°19'0 0.0
2017-Dec-20 22:00N 30°11' W 093°19'0 0.0
2017-Dec-20 21:30N 30°11' W 093°19'0 0.0
2017-Dec-20 21:00N 30°11' W 093°19'0 0.0
2017-Dec-20 20:30N 30°11' W 093°19'0 0.0
2017-Dec-20 20:00N 30°11' W 093°19'0 0.0
2017-Dec-20 19:30N 30°11' W 093°19'0 0.0
2017-Dec-20 19:00N 30°11' W 093°19'0 0.0
2017-Dec-20 18:30N 30°11' W 093°19'0 0.0
2017-Dec-20 17:57N 30°11' W 093°19'0 0.0
2017-Dec-20 17:27N 30°11' W 093°19'0 0.0
2017-Dec-20 17:00N 30°11' W 093°19'0 0.0
2017-Dec-20 16:30N 30°11' W 093°19'0 0.0
2017-Dec-20 16:00N 30°11' W 093°19'0 0.0
2017-Dec-20 15:30N 30°11' W 093°19'0 0.0
2017-Dec-20 15:00N 30°11' W 093°19'0 0.0
2017-Dec-20 14:30N 30°11' W 093°19'0 0.0
2017-Dec-20 14:00N 30°11' W 093°19'0 0.0
2017-Dec-20 13:30N 30°11' W 093°19'0 0.0
2017-Dec-20 13:00N 30°11' W 093°19'0 0.0
2017-Dec-20 12:30N 30°11' W 093°19'0 0.0
2017-Dec-20 12:00N 30°11' W 093°19'0 0.0
2017-Dec-20 11:30N 30°11' W 093°19'0 0.0
2017-Dec-20 11:00N 30°11' W 093°19'0 0.0
2017-Dec-20 10:30N 30°11' W 093°19'0 0.1
2017-Dec-20 10:00N 30°11' W 093°19'0 0.7
2017-Dec-20 09:30N 30°11' W 093°19'1 1.7
2017-Dec-20 09:01N 30°10' W 093°19'3 6.5
2017-Dec-20 08:30N 30°07' W 093°20'2 4.8
2017-Dec-20 08:00N 30°05' W 093°20'1 2.9
2017-Dec-20 07:30N 30°04' W 093°22'0 0.0
2017-Dec-20 07:00N 30°04' W 093°22'0 0.0
2017-Dec-20 06:30N 30°04' W 093°22'0 0.0
2017-Dec-20 06:00N 30°04' W 093°22'0 0.0
2017-Dec-20 05:30N 30°04' W 093°22'0 0.0
2017-Dec-20 05:00N 30°04' W 093°22'0 0.0
2017-Dec-20 04:30N 30°04' W 093°22'0 0.0
2017-Dec-20 04:00N 30°04' W 093°22'0 0.0
2017-Dec-20 03:30N 30°04' W 093°22'0 0.0
2017-Dec-20 03:00N 30°04' W 093°22'0 0.0
2017-Dec-20 02:30N 30°04' W 093°22'0 0.0
2017-Dec-20 01:57N 30°04' W 093°22'0 0.0
2017-Dec-20 01:30N 30°04' W 093°22'0 0.0
2017-Dec-20 00:58N 30°04' W 093°22'0 0.0
2017-Dec-20 00:28N 30°04' W 093°22'0 0.0
2017-Dec-19 23:58N 30°04' W 093°22'0 0.0
2017-Dec-19 23:28N 30°04' W 093°22'0 0.0
2017-Dec-19 22:58N 30°04' W 093°22'0 0.0
2017-Dec-19 22:28N 30°04' W 093°22'0 0.0
2017-Dec-19 22:00N 30°04' W 093°22'0 0.0
2017-Dec-19 21:30N 30°04' W 093°22'0 0.0
2017-Dec-19 21:00N 30°04' W 093°22'0 0.0
2017-Dec-19 20:29N 30°04' W 093°22'0 0.1
2017-Dec-19 19:59N 30°04' W 093°22'0 0.1
2017-Dec-19 19:26N 30°04' W 093°22'0 0.0
2017-Dec-19 18:59N 30°04' W 093°22'0 0.7
2017-Dec-19 18:28N 30°04' W 093°21'0 0.0
2017-Dec-19 17:58N 30°04' W 093°21'0 0.0
2017-Dec-19 17:28N 30°04' W 093°21'0 0.1
2017-Dec-19 17:00N 30°04' W 093°21'0 0.9
2017-Dec-19 16:30N 30°04' W 093°22'0 0.0
2017-Dec-19 16:00N 30°04' W 093°22'0 0.0
2017-Dec-19 15:30N 30°04' W 093°22'0 0.0
2017-Dec-19 15:00N 30°04' W 093°22'0 0.0
2017-Dec-19 14:30N 30°04' W 093°22'0 0.0
2017-Dec-19 14:00N 30°04' W 093°22'0 0.0
2017-Dec-19 13:30N 30°04' W 093°22'0 0.0
2017-Dec-19 13:00N 30°04' W 093°22'0 0.0
2017-Dec-19 12:30N 30°04' W 093°22'0 0.0
2017-Dec-19 12:00N 30°04' W 093°22'0 0.0
2017-Dec-19 11:30N 30°04' W 093°22'0 0.0
2017-Dec-19 11:00N 30°04' W 093°22'0 0.0
2017-Dec-19 10:30N 30°04' W 093°22'0 0.0
2017-Dec-19 10:00N 30°04' W 093°22'0 0.0
2017-Dec-19 09:30N 30°04' W 093°22'0 0.0
2017-Dec-19 09:00N 30°04' W 093°22'0 0.0
2017-Dec-19 08:30N 30°04' W 093°22'0 0.0
2017-Dec-19 08:00N 30°04' W 093°22'0 0.0
2017-Dec-19 07:30N 30°04' W 093°22'0 0.0
2017-Dec-19 07:00N 30°04' W 093°22'0 0.0
2017-Dec-19 06:30N 30°04' W 093°22'0 0.2
2017-Dec-19 05:59N 30°04' W 093°22'0 0.0
2017-Dec-19 05:29N 30°04' W 093°22'0 0.1
2017-Dec-19 05:00N 30°04' W 093°22'1 1.9
2017-Dec-19 04:31N 30°04' W 093°21'1 1.7
2017-Dec-19 04:00N 30°04' W 093°22'0 0.2
2017-Dec-19 03:28N 30°04' W 093°22'0 0.0
2017-Dec-19 02:58N 30°04' W 093°22'0 0.0
2017-Dec-19 02:28N 30°04' W 093°22'0 0.0
2017-Dec-19 01:58N 30°04' W 093°22'0 0.0
2017-Dec-19 01:28N 30°04' W 093°22'0 0.0
2017-Dec-19 00:55N 30°04' W 093°22'0 0.1
2017-Dec-19 00:28N 30°04' W 093°22'0 0.0
2017-Dec-18 23:58N 30°04' W 093°22'0 1.0
2017-Dec-18 23:30N 30°04' W 093°22'1 2.0
2017-Dec-18 23:00N 30°04' W 093°24'2 3.4
2017-Dec-18 22:31N 30°04' W 093°25'2 4.2
2017-Dec-18 22:00N 30°04' W 093°28'2 4.3
2017-Dec-18 21:30N 30°04' W 093°30'2 4.3
2017-Dec-18 21:00N 30°04' W 093°33'3 4.3
2017-Dec-18 20:25N 30°04' W 093°36'2 4.2
2017-Dec-18 19:55N 30°04' W 093°38'  
Track history (hours):
 
Tides and Currents Weather Stations Pressure Air Temp Water Temp Dewpoint Dewpoint Depression Visibility Wind Speed Wind Dir Waves Ship Positions

Ajax

Owner: Kirby Inland Marine LP, Houston, TX. More information available from US FCC via Universal Licensing System and Coast Guard Vessel Documentation Center.

Last reported at 2017-Dec-25 05:36 UTC. Time now 2018-Jan-19 15:26 UTC.
Position N 29°33' W 090°28'.
Warning: this ship's position is 25 days out of date.

Length 206 m; draft 3 m.

Type: . MMSI: 366995150.

Date/timePositionNaut miles runAvg speedWind from/ knotsBaromVisibWave heightAir tempDewpointWater temp
2017-Dec-25 05:36N 29°33' W 090°28'1 6.1
2017-Dec-25 05:28N 29°34' W 090°29'3 6.1
2017-Dec-25 05:00N 29°34' W 090°32'3 5.7
2017-Dec-25 04:31N 29°35' W 090°35'3 5.4
2017-Dec-25 04:00N 29°35' W 090°38'3 5.4
2017-Dec-25 03:30N 29°36' W 090°41'2 3.9
2017-Dec-25 03:01N 29°35' W 090°43'2 4.3
2017-Dec-25 02:30N 29°34' W 090°45'3 5.4
2017-Dec-25 02:00N 29°32' W 090°47'4 6.4
2017-Dec-25 01:25N 29°32' W 090°52'61 4.2
2017-Dec-24 10:59N 29°50' W 091°58'3 6.2
2017-Dec-24 10:30N 29°49' W 092°01'3 6.2
2017-Dec-24 10:01N 29°48' W 092°05'2 3.5
2017-Dec-24 09:30N 29°48' W 092°07'3 6.1
2017-Dec-24 09:00N 29°47' W 092°10'3 5.7
2017-Dec-24 08:31N 29°47' W 092°13'2 4.6
2017-Dec-24 08:00N 29°48' W 092°16'3 6.0
2017-Dec-24 07:30N 29°50' W 092°18'3 6.0
2017-Dec-24 07:00N 29°51' W 092°22'33 4.7
2017-Dec-23 23:57N 29°56' W 092°60'2 5.1
2017-Dec-23 23:30N 29°56' W 093°02'3 5.5
2017-Dec-23 23:00N 29°56' W 093°05'2 4.2
2017-Dec-23 22:30N 29°56' W 093°08'2 4.8
2017-Dec-23 22:00N 29°57' W 093°10'3 5.3
2017-Dec-23 21:30N 29°59' W 093°12'2 4.8
2017-Dec-23 21:01N 30°01' W 093°14'2 4.7
2017-Dec-23 20:31N 30°03' W 093°16'2 3.8
2017-Dec-23 20:00N 30°04' W 093°16'2 3.5
2017-Dec-23 19:31N 30°06' W 093°18'2 3.6
2017-Dec-23 19:00N 30°05' W 093°20'2 5.0
2017-Dec-23 18:30N 30°04' W 093°22'0 0.1
2017-Dec-23 18:01N 30°04' W 093°22'0 0.1
2017-Dec-23 17:30N 30°04' W 093°22'0 0.0
2017-Dec-23 17:00N 30°04' W 093°22'1 1.7
2017-Dec-23 16:31N 30°04' W 093°21'0 0.0
2017-Dec-23 16:00N 30°04' W 093°21'0 0.0
2017-Dec-23 15:30N 30°04' W 093°21'0 0.0
2017-Dec-23 15:01N 30°04' W 093°21'0 0.9
2017-Dec-23 14:30N 30°04' W 093°22'0 0.4
2017-Dec-23 14:00N 30°04' W 093°22'0 0.2
2017-Dec-23 13:31N 30°04' W 093°22'0 0.2
2017-Dec-23 13:00N 30°04' W 093°22'1 1.2
2017-Dec-23 12:30N 30°04' W 093°21'0 0.1
2017-Dec-23 11:59N 30°04' W 093°21'0 0.0
2017-Dec-23 11:29N 30°04' W 093°21'0 0.0
2017-Dec-23 10:59N 30°04' W 093°21'0 0.0
2017-Dec-23 10:29N 30°04' W 093°21'0 0.0
2017-Dec-23 09:59N 30°04' W 093°21'0 0.0
2017-Dec-23 09:29N 30°04' W 093°21'0 0.0
2017-Dec-23 08:59N 30°04' W 093°21'0 0.0
2017-Dec-23 08:29N 30°04' W 093°21'0 0.0
2017-Dec-23 07:59N 30°04' W 093°21'0 0.0
2017-Dec-23 07:29N 30°04' W 093°21'0 0.0
2017-Dec-23 06:59N 30°04' W 093°21'0 0.0
2017-Dec-23 06:29N 30°04' W 093°21'0 0.0
2017-Dec-23 05:59N 30°04' W 093°21'0 0.0
2017-Dec-23 05:29N 30°04' W 093°21'0 0.0
2017-Dec-23 04:59N 30°04' W 093°21'0 0.0
2017-Dec-23 04:29N 30°04' W 093°21'0 0.0
2017-Dec-23 03:59N 30°04' W 093°21'0 0.0
2017-Dec-23 03:29N 30°04' W 093°21'0 0.0
2017-Dec-23 02:59N 30°04' W 093°21'0 0.0
2017-Dec-23 02:29N 30°04' W 093°21'0 0.0
2017-Dec-23 01:59N 30°04' W 093°21'0 0.0
2017-Dec-23 01:29N 30°04' W 093°21'0 0.0
2017-Dec-23 00:59N 30°04' W 093°21'0 0.0
2017-Dec-23 00:29N 30°04' W 093°21'0 0.0
2017-Dec-22 23:56N 30°04' W 093°21'0 0.0
2017-Dec-22 23:29N 30°04' W 093°21'0 0.0
2017-Dec-22 22:59N 30°04' W 093°21'0 0.0
2017-Dec-22 22:29N 30°04' W 093°21'1 2.2
2017-Dec-22 22:01N 30°04' W 093°20'3 5.3
2017-Dec-22 21:30N 30°06' W 093°18'0 0.0
2017-Dec-22 21:00N 30°06' W 093°18'0 0.0
2017-Dec-22 20:30N 30°06' W 093°18'0 0.0
2017-Dec-22 20:01N 30°06' W 093°18'4 7.4
2017-Dec-22 19:30N 30°04' W 093°21'0 0.0
2017-Dec-22 18:58N 30°04' W 093°21'0 0.0
2017-Dec-22 18:31N 30°04' W 093°21'0 0.0
2017-Dec-22 18:00N 30°04' W 093°21'0 0.0
2017-Dec-22 17:31N 30°04' W 093°21'0 0.0
2017-Dec-22 17:01N 30°04' W 093°21'0 0.0
2017-Dec-22 16:30N 30°04' W 093°21'0 0.7
2017-Dec-22 16:01N 30°04' W 093°22'0 0.7
2017-Dec-22 15:31N 30°04' W 093°22'0 0.0
2017-Dec-22 15:01N 30°04' W 093°22'0 0.0
2017-Dec-22 14:28N 30°04' W 093°22'0 0.0
2017-Dec-22 13:58N 30°04' W 093°22'0 0.0
2017-Dec-22 13:28N 30°04' W 093°22'0 0.0
2017-Dec-22 12:58N 30°04' W 093°22'0 0.0
2017-Dec-22 12:28N 30°04' W 093°22'0 0.0
2017-Dec-22 11:58N 30°04' W 093°22'0 0.0
2017-Dec-22 11:28N 30°04' W 093°22'0 0.0
2017-Dec-22 10:58N 30°04' W 093°22'0 0.0
2017-Dec-22 10:28N 30°04' W 093°22'0 0.0
2017-Dec-22 09:58N 30°04' W 093°22'0 0.0
2017-Dec-22 09:28N 30°04' W 093°22'0 0.0
2017-Dec-22 09:00N 30°04' W 093°22'2 4.0
2017-Dec-22 08:30N 30°05' W 093°20'2 3.6
2017-Dec-22 08:00N 30°07' W 093°20'2 3.1
2017-Dec-22 07:30N 30°08' W 093°20'0 0.0
2017-Dec-22 07:00N 30°08' W 093°20'0 0.0
2017-Dec-22 06:30N 30°08' W 093°20'0 0.0
2017-Dec-22 06:00N 30°08' W 093°20'0 0.8
2017-Dec-22 05:28N 30°08' W 093°19'0 0.0
2017-Dec-22 04:58N 30°08' W 093°19'0 0.0
2017-Dec-22 04:30N 30°08' W 093°19'0 0.0
2017-Dec-22 04:00N 30°08' W 093°19'0 0.0
2017-Dec-22 03:31N 30°08' W 093°19'0 0.0
2017-Dec-22 03:01N 30°08' W 093°19'0 0.0
2017-Dec-22 02:30N 30°08' W 093°19'0 0.0
2017-Dec-22 02:00N 30°08' W 093°19'0 0.0
2017-Dec-22 01:31N 30°08' W 093°19'0 0.0
2017-Dec-22 01:00N 30°08' W 093°19'0 0.0
2017-Dec-22 00:31N 30°08' W 093°19'0 0.0
2017-Dec-22 00:00N 30°08' W 093°19'0 0.0
2017-Dec-21 23:30N 30°08' W 093°19'0 0.0
2017-Dec-21 23:01N 30°08' W 093°19'0 0.0
2017-Dec-21 22:30N 30°08' W 093°19'0 0.0
2017-Dec-21 22:00N 30°08' W 093°19'0 0.0
2017-Dec-21 21:30N 30°08' W 093°19'0 0.0
2017-Dec-21 21:01N 30°08' W 093°19'0 0.0
2017-Dec-21 20:30N 30°08' W 093°19'0 0.0
2017-Dec-21 20:00N 30°08' W 093°19'0 0.0
2017-Dec-21 19:30N 30°08' W 093°19'0 0.0
2017-Dec-21 19:01N 30°08' W 093°19'0 0.0
2017-Dec-21 18:30N 30°08' W 093°19'0 0.0
2017-Dec-21 18:00N 30°08' W 093°19'0 0.0
2017-Dec-21 17:30N 30°08' W 093°19'0 0.0
2017-Dec-21 17:00N 30°08' W 093°19'0 0.0
2017-Dec-21 16:30N 30°08' W 093°19'0 0.1
2017-Dec-21 16:00N 30°08' W 093°19'0 0.0
2017-Dec-21 15:30N 30°08' W 093°19'1 1.5
2017-Dec-21 15:01N 30°08' W 093°20'2 3.9
2017-Dec-21 14:30N 30°06' W 093°20'3 4.7
2017-Dec-21 13:57N 30°04' W 093°21'1 1.3
2017-Dec-21 13:29N 30°04' W 093°22'0 0.1
2017-Dec-21 12:56N 30°04' W 093°22'0 0.0
2017-Dec-21 12:29N 30°04' W 093°22'0 0.2
2017-Dec-21 11:58N 30°04' W 093°22'1 1.2
2017-Dec-21 11:30N 30°04' W 093°22'2 3.8
2017-Dec-21 10:59N 30°05' W 093°20'3 4.8
2017-Dec-21 10:25N 30°08' W 093°20'3 1.8
2017-Dec-21 08:27N 30°11' W 093°19'0 0.0
2017-Dec-21 08:00N 30°11' W 093°19'0 0.0
2017-Dec-21 07:30N 30°11' W 093°19'0 0.0
2017-Dec-21 07:00N 30°11' W 093°19'0 0.0
2017-Dec-21 06:03N 30°11' W 093°19'0 0.0
2017-Dec-21 05:57N 30°11' W 093°19'0 0.0
2017-Dec-21 05:30N 30°11' W 093°19'0 0.0
2017-Dec-21 05:00N 30°11' W 093°19'0 0.0
2017-Dec-21 04:30N 30°11' W 093°19'0 0.0
2017-Dec-21 04:00N 30°11' W 093°19'0 0.0
2017-Dec-21 03:30N 30°11' W 093°19'0 0.0
2017-Dec-21 03:00N 30°11' W 093°19'0 0.0
2017-Dec-21 02:30N 30°11' W 093°19'0 0.0
2017-Dec-21 02:00N 30°11' W 093°19'0 0.0
2017-Dec-21 01:30N 30°11' W 093°19'0 0.0
2017-Dec-21 01:00N 30°11' W 093°19'0 0.0
2017-Dec-21 00:30N 30°11' W 093°19'0 0.0
2017-Dec-21 00:00N 30°11' W 093°19'0 0.0
2017-Dec-20 23:30N 30°11' W 093°19'0 0.0
2017-Dec-20 23:00N 30°11' W 093°19'0 0.0
2017-Dec-20 22:30N 30°11' W 093°19'0 0.0
2017-Dec-20 22:00N 30°11' W 093°19'0 0.0
2017-Dec-20 21:30N 30°11' W 093°19'0 0.0
2017-Dec-20 21:00N 30°11' W 093°19'0 0.0
2017-Dec-20 20:30N 30°11' W 093°19'0 0.0
2017-Dec-20 20:00N 30°11' W 093°19'0 0.0
2017-Dec-20 19:30N 30°11' W 093°19'0 0.0
2017-Dec-20 19:00N 30°11' W 093°19'0 0.0
2017-Dec-20 18:30N 30°11' W 093°19'0 0.0
2017-Dec-20 17:57N 30°11' W 093°19'0 0.0
2017-Dec-20 17:27N 30°11' W 093°19'0 0.0
2017-Dec-20 17:00N 30°11' W 093°19'0 0.0
2017-Dec-20 16:30N 30°11' W 093°19'0 0.0
2017-Dec-20 16:00N 30°11' W 093°19'0 0.0
2017-Dec-20 15:30N 30°11' W 093°19'0 0.0
2017-Dec-20 15:00N 30°11' W 093°19'0 0.0
2017-Dec-20 14:30N 30°11' W 093°19'0 0.0
2017-Dec-20 14:00N 30°11' W 093°19'0 0.0
2017-Dec-20 13:30N 30°11' W 093°19'0 0.0
2017-Dec-20 13:00N 30°11' W 093°19'0 0.0
2017-Dec-20 12:30N 30°11' W 093°19'0 0.0
2017-Dec-20 12:00N 30°11' W 093°19'0 0.0
2017-Dec-20 11:30N 30°11' W 093°19'0 0.0
2017-Dec-20 11:00N 30°11' W 093°19'0 0.0
2017-Dec-20 10:30N 30°11' W 093°19'0 0.1
2017-Dec-20 10:00N 30°11' W 093°19'0 0.7
2017-Dec-20 09:30N 30°11' W 093°19'1 1.7
2017-Dec-20 09:01N 30°10' W 093°19'3 6.5
2017-Dec-20 08:30N 30°07' W 093°20'2 4.8
2017-Dec-20 08:00N 30°05' W 093°20'1 2.9
2017-Dec-20 07:30N 30°04' W 093°22'0 0.0
2017-Dec-20 07:00N 30°04' W 093°22'0 0.0
2017-Dec-20 06:30N 30°04' W 093°22'0 0.0
2017-Dec-20 06:00N 30°04' W 093°22'0 0.0
2017-Dec-20 05:30N 30°04' W 093°22'0 0.0
2017-Dec-20 05:00N 30°04' W 093°22'0 0.0
2017-Dec-20 04:30N 30°04' W 093°22'0 0.0
2017-Dec-20 04:00N 30°04' W 093°22'0 0.0
2017-Dec-20 03:30N 30°04' W 093°22'0 0.0
2017-Dec-20 03:00N 30°04' W 093°22'0 0.0
2017-Dec-20 02:30N 30°04' W 093°22'0 0.0
2017-Dec-20 01:57N 30°04' W 093°22'0 0.0
2017-Dec-20 01:30N 30°04' W 093°22'0 0.0
2017-Dec-20 00:58N 30°04' W 093°22'0 0.0
2017-Dec-20 00:28N 30°04' W 093°22'0 0.0
2017-Dec-19 23:58N 30°04' W 093°22'0 0.0
2017-Dec-19 23:28N 30°04' W 093°22'0 0.0
2017-Dec-19 22:58N 30°04' W 093°22'0 0.0
2017-Dec-19 22:28N 30°04' W 093°22'0 0.0
2017-Dec-19 22:00N 30°04' W 093°22'0 0.0
2017-Dec-19 21:30N 30°04' W 093°22'0 0.0
2017-Dec-19 21:00N 30°04' W 093°22'0 0.0
2017-Dec-19 20:29N 30°04' W 093°22'0 0.1
2017-Dec-19 19:59N 30°04' W 093°22'0 0.1
2017-Dec-19 19:26N 30°04' W 093°22'0 0.0
2017-Dec-19 18:59N 30°04' W 093°22'0 0.7
2017-Dec-19 18:28N 30°04' W 093°21'0 0.0
2017-Dec-19 17:58N 30°04' W 093°21'0 0.0
2017-Dec-19 17:28N 30°04' W 093°21'0 0.1
2017-Dec-19 17:00N 30°04' W 093°21'0 0.9
2017-Dec-19 16:30N 30°04' W 093°22'0 0.0
2017-Dec-19 16:00N 30°04' W 093°22'0 0.0
2017-Dec-19 15:30N 30°04' W 093°22'0 0.0
2017-Dec-19 15:00N 30°04' W 093°22'0 0.0
2017-Dec-19 14:30N 30°04' W 093°22'0 0.0
2017-Dec-19 14:00N 30°04' W 093°22'0 0.0
2017-Dec-19 13:30N 30°04' W 093°22'0 0.0
2017-Dec-19 13:00N 30°04' W 093°22'0 0.0
2017-Dec-19 12:30N 30°04' W 093°22'0 0.0
2017-Dec-19 12:00N 30°04' W 093°22'0 0.0
2017-Dec-19 11:30N 30°04' W 093°22'0 0.0
2017-Dec-19 11:00N 30°04' W 093°22'0 0.0
2017-Dec-19 10:30N 30°04' W 093°22'0 0.0
2017-Dec-19 10:00N 30°04' W 093°22'0 0.0
2017-Dec-19 09:30N 30°04' W 093°22'0 0.0
2017-Dec-19 09:00N 30°04' W 093°22'0 0.0
2017-Dec-19 08:30N 30°04' W 093°22'0 0.0
2017-Dec-19 08:00N 30°04' W 093°22'0 0.0
2017-Dec-19 07:30N 30°04' W 093°22'0 0.0
2017-Dec-19 07:00N 30°04' W 093°22'0 0.0
2017-Dec-19 06:30N 30°04' W 093°22'0 0.2
2017-Dec-19 05:59N 30°04' W 093°22'0 0.0
2017-Dec-19 05:29N 30°04' W 093°22'0 0.1
2017-Dec-19 05:00N 30°04' W 093°22'1 1.9
2017-Dec-19 04:31N 30°04' W 093°21'1 1.7
2017-Dec-19 04:00N 30°04' W 093°22'0 0.2
2017-Dec-19 03:28N 30°04' W 093°22'0 0.0
2017-Dec-19 02:58N 30°04' W 093°22'0 0.0
2017-Dec-19 02:28N 30°04' W 093°22'0 0.0
2017-Dec-19 01:58N 30°04' W 093°22'0 0.0
2017-Dec-19 01:28N 30°04' W 093°22'0 0.0
2017-Dec-19 00:55N 30°04' W 093°22'0 0.1
2017-Dec-19 00:28N 30°04' W 093°22'0 0.0
2017-Dec-18 23:58N 30°04' W 093°22'0 1.0
2017-Dec-18 23:30N 30°04' W 093°22'1 2.0
2017-Dec-18 23:00N 30°04' W 093°24'2 3.4
2017-Dec-18 22:31N 30°04' W 093°25'2 4.2
2017-Dec-18 22:00N 30°04' W 093°28'2 4.3
2017-Dec-18 21:30N 30°04' W 093°30'2 4.3
2017-Dec-18 21:00N 30°04' W 093°33'3 4.3
2017-Dec-18 20:25N 30°04' W 093°36'2 4.2
2017-Dec-18 19:55N 30°04' W 093°38'  

Dump ship's entire track history